Terminal Aerodrome Forecast
Issued by NWS

Home | Current Version | Previous Version | Text Only | Print | Product List | Glossary On
Versions: 1 2 3 4 5 6 7 8 9 10 11 12 13 14 15 16
661
FTUS43 KAPX 231120
TAFAPN
TAF
KAPN 231120Z 2312/2412 VRB03KT P6SM BKN045
     FM231300 11005KT P6SM BKN025
     FM231600 12006KT P6SM BKN060
     FM231800 11007KT P6SM -SHRA BKN025
     FM232000 08008KT P6SM -SHRA VCTS OVC025CB
     FM240000 05007KT 4SM -SHRA BR BKN015
     FM240300 02007KT 4SM BR OVC008=

USA.gov is the U.S. government's official web portal to all federal, state and local government web resources and services.